Check out our new BloomSky Weather System.

Active alerts


No alerts


Thunder radar  blitzortung!


Rain radar more information rain snow radar


Visit our other weather sites:

Template documentation
and downloads

And another site



Weather Underground History page Text

Daily Summary for January 12, 2018 Units:  Both    English   Metric
« Previous Day
Next Day »
Daily Weekly Monthly Yearly Custom
  High: Low: Average:
Temperature: TemperatureF °F /  -17.8 °C 30.6 °F /  -0.8 °C 38.4 °F /  3.6 °C
Dew Point: DewpointF °F /  -17.8 °C 19.9 °F /  -6.7 °C 23.6 °F /  -4.7 °C
Humidity: Humidity % 40 % 55 %
Wind Speed: WindSpeedMPH mph /  0 km/h - 4.8 mph /  7.7 km/h
Wind Gust: WindSpeedGustMPH mph /  0 km/h - -
Wind:- - NW
Pressure: PressureIn in /  0 hPa 30.07 in /  1018.2 hPa -
Precipitation: 0.00 in /  0 mm    
Historical Graphs
 
 
Tabular Data for January 12, 2018
Time Temperature Dew Point Pressure Wind Wind Speed Wind Gust Humidity Rainfall Rate (Hourly)
TemperatureF °F /  -17.8 °C DewpointF °F /  -17.8 °C PressureIn in /  0 hPa Calm     Humidity % HourlyPrecipIn in /  0 mm
00:12 38.8 °F /  3.8 °C 25.3 °F /  -3.7 °C 30.08 in /  1018.5 hPa NW 17.0 mph /  27.4 km/h 23.0 mph /  37 km/h 58 % 0.00 in /  0 mm
00:20 38.7 °F /  3.7 °C 24.8 °F /  -4 °C 30.07 in /  1018.2 hPa NNW 8.0 mph /  12.9 km/h 19.0 mph /  30.6 km/h 57 % 0.00 in /  0 mm
00:25 38.5 °F /  3.6 °C 25.0 °F /  -3.9 °C 30.08 in /  1018.5 hPa NNW 4.0 mph /  6.4 km/h 21.0 mph /  33.8 km/h 58 % 0.00 in /  0 mm
00:32 38.3 °F /  3.5 °C 24.8 °F /  -4 °C 30.08 in /  1018.5 hPa West 7.0 mph /  11.3 km/h 21.0 mph /  33.8 km/h 58 % 0.00 in /  0 mm
00:49 37.9 °F /  3.3 °C 24.1 °F /  -4.4 °C 30.08 in /  1018.5 hPa NNW 6.0 mph /  9.7 km/h 19.0 mph /  30.6 km/h 57 % 0.00 in /  0 mm
00:54 37.8 °F /  3.2 °C 24.3 °F /  -4.3 °C 30.08 in /  1018.5 hPa NNW 9.0 mph /  14.5 km/h 17.0 mph /  27.4 km/h 58 % 0.00 in /  0 mm
01:09 37.6 °F /  3.1 °C 23.7 °F /  -4.6 °C 30.09 in /  1018.8 hPa NW 8.0 mph /  12.9 km/h 17.0 mph /  27.4 km/h 57 % 0.00 in /  0 mm
01:17 37.2 °F /  2.9 °C 23.7 °F /  -4.6 °C 30.09 in /  1018.8 hPa North 7.0 mph /  11.3 km/h 17.0 mph /  27.4 km/h 58 % 0.00 in /  0 mm
01:25 37.2 °F /  2.9 °C 23.7 °F /  -4.6 °C 30.09 in /  1018.8 hPa NNW 3.0 mph /  4.8 km/h 18.0 mph /  29 km/h 58 % 0.00 in /  0 mm
01:30 37.0 °F /  2.8 °C 23.7 °F /  -4.6 °C 30.08 in /  1018.5 hPa NW 5.0 mph /  8 km/h 18.0 mph /  29 km/h 58 % 0.00 in /  0 mm
01:36 36.9 °F /  2.7 °C 23.5 °F /  -4.7 °C 30.08 in /  1018.5 hPa NW 5.0 mph /  8 km/h 19.0 mph /  30.6 km/h 58 % 0.00 in /  0 mm
01:45 36.9 °F /  2.7 °C 23.9 °F /  -4.5 °C 30.09 in /  1018.8 hPa WNW 5.0 mph /  8 km/h 19.0 mph /  30.6 km/h 59 % 0.00 in /  0 mm
01:51 36.7 °F /  2.6 °C 22.8 °F /  -5.1 °C 30.09 in /  1018.8 hPa NW 7.0 mph /  11.3 km/h 15.0 mph /  24.1 km/h 57 % 0.00 in /  0 mm
01:56 36.7 °F /  2.6 °C 22.8 °F /  -5.1 °C 30.09 in /  1018.8 hPa NW 6.0 mph /  9.7 km/h 22.0 mph /  35.4 km/h 57 % 0.00 in /  0 mm
02:02 36.3 °F /  2.4 °C 23.0 °F /  -5 °C 30.09 in /  1018.8 hPa West 9.0 mph /  14.5 km/h 22.0 mph /  35.4 km/h 58 % 0.00 in /  0 mm
02:10 36.3 °F /  2.4 °C 22.5 °F /  -5.3 °C 30.10 in /  1019.2 hPa NW 5.0 mph /  8 km/h 22.0 mph /  35.4 km/h 57 % 0.00 in /  0 mm
02:15 36.1 °F /  2.3 °C 22.8 °F /  -5.1 °C 30.10 in /  1019.2 hPa NW 3.0 mph /  4.8 km/h 19.0 mph /  30.6 km/h 58 % 0.00 in /  0 mm
02:22 36.0 °F /  2.2 °C 23.0 °F /  -5 °C 30.09 in /  1018.8 hPa NW 3.0 mph /  4.8 km/h 19.0 mph /  30.6 km/h 59 % 0.00 in /  0 mm
02:27 36.0 °F /  2.2 °C 23.0 °F /  -5 °C 30.09 in /  1018.8 hPa NNW 8.0 mph /  12.9 km/h 16.0 mph /  25.7 km/h 59 % 0.00 in /  0 mm
02:35 35.8 °F /  2.1 °C 22.8 °F /  -5.1 °C 30.10 in /  1019.2 hPa NNW 10.0 mph /  16.1 km/h 16.0 mph /  25.7 km/h 59 % 0.00 in /  0 mm
02:42 35.6 °F /  2 °C 22.6 °F /  -5.2 °C 30.10 in /  1019.2 hPa North 7.0 mph /  11.3 km/h 13.0 mph /  20.9 km/h 59 % 0.00 in /  0 mm
02:54 35.2 °F /  1.8 °C 22.8 °F /  -5.1 °C 30.10 in /  1019.2 hPa NW 3.0 mph /  4.8 km/h 15.0 mph /  24.1 km/h 60 % 0.00 in /  0 mm
02:59 35.2 °F /  1.8 °C 22.8 °F /  -5.1 °C 30.10 in /  1019.2 hPa NNW 7.0 mph /  11.3 km/h 15.0 mph /  24.1 km/h 60 % 0.00 in /  0 mm
03:12 35.1 °F /  1.7 °C 22.6 °F /  -5.2 °C 30.11 in /  1019.5 hPa NE 8.0 mph /  12.9 km/h 16.0 mph /  25.7 km/h 60 % 0.00 in /  0 mm
03:17 35.1 °F /  1.7 °C 22.6 °F /  -5.2 °C 30.11 in /  1019.5 hPa NNW 8.0 mph /  12.9 km/h 16.0 mph /  25.7 km/h 60 % 0.00 in /  0 mm
03:23 34.9 °F /  1.6 °C 22.8 °F /  -5.1 °C 30.11 in /  1019.5 hPa NNW 7.0 mph /  11.3 km/h 14.0 mph /  22.5 km/h 61 % 0.00 in /  0 mm
03:30 34.9 °F /  1.6 °C 22.5 °F /  -5.3 °C 30.12 in /  1019.9 hPa WSW 5.0 mph /  8 km/h 16.0 mph /  25.7 km/h 60 % 0.00 in /  0 mm
03:43 34.7 °F /  1.5 °C 22.6 °F /  -5.2 °C 30.13 in /  1020.2 hPa NNW 12.0 mph /  19.3 km/h 16.0 mph /  25.7 km/h 61 % 0.00 in /  0 mm
03:48 34.5 °F /  1.4 °C 22.5 °F /  -5.3 °C 30.12 in /  1019.9 hPa NW 7.0 mph /  11.3 km/h 15.0 mph /  24.1 km/h 61 % 0.00 in /  0 mm
03:53 34.3 °F /  1.3 °C 22.3 °F /  -5.4 °C 30.13 in /  1020.2 hPa NW 4.0 mph /  6.4 km/h 14.0 mph /  22.5 km/h 61 % 0.00 in /  0 mm
04:00 34.3 °F /  1.3 °C 22.3 °F /  -5.4 °C 30.12 in /  1019.9 hPa NNW 11.0 mph /  17.7 km/h 12.0 mph /  19.3 km/h 61 % 0.00 in /  0 mm
04:05 34.2 °F /  1.2 °C 22.1 °F /  -5.5 °C 30.12 in /  1019.9 hPa NNW 5.0 mph /  8 km/h 13.0 mph /  20.9 km/h 61 % 0.00 in /  0 mm
04:19 33.6 °F /  0.9 °C 21.6 °F /  -5.8 °C 30.13 in /  1020.2 hPa NNW 4.0 mph /  6.4 km/h 13.0 mph /  20.9 km/h 61 % 0.00 in /  0 mm
04:35 33.4 °F /  0.8 °C 21.4 °F /  -5.9 °C 30.14 in /  1020.5 hPa NNW 7.0 mph /  11.3 km/h 15.0 mph /  24.1 km/h 61 % 0.00 in /  0 mm
04:44 33.3 °F /  0.7 °C 21.7 °F /  -5.7 °C 30.14 in /  1020.5 hPa NNW 2.0 mph /  3.2 km/h 15.0 mph /  24.1 km/h 62 % 0.00 in /  0 mm
04:49 33.1 °F /  0.6 °C 21.6 °F /  -5.8 °C 30.14 in /  1020.5 hPa NW 11.0 mph /  17.7 km/h 15.0 mph /  24.1 km/h 62 % 0.00 in /  0 mm
04:55 33.1 °F /  0.6 °C 21.0 °F /  -6.1 °C 30.15 in /  1020.9 hPa NNW 5.0 mph /  8 km/h 17.0 mph /  27.4 km/h 61 % 0.00 in /  0 mm
05:07 32.7 °F /  0.4 °C 20.8 °F /  -6.2 °C 30.15 in /  1020.9 hPa NNW 9.0 mph /  14.5 km/h 22.0 mph /  35.4 km/h 61 % 0.00 in /  0 mm
05:18 32.5 °F /  0.3 °C 21.0 °F /  -6.1 °C 30.16 in /  1021.2 hPa NW 8.0 mph /  12.9 km/h 15.0 mph /  24.1 km/h 62 % 0.00 in /  0 mm
05:24 32.4 °F /  0.2 °C 20.5 °F /  -6.4 °C 30.16 in /  1021.2 hPa NNW 2.0 mph /  3.2 km/h 15.0 mph /  24.1 km/h 61 % 0.00 in /  0 mm
05:30 32.4 °F /  0.2 °C 20.5 °F /  -6.4 °C 30.17 in /  1021.6 hPa NNW 13.0 mph /  20.9 km/h 14.0 mph /  22.5 km/h 61 % 0.00 in /  0 mm
05:35 32.4 °F /  0.2 °C 20.8 °F /  -6.2 °C 30.17 in /  1021.6 hPa WNW 2.0 mph /  3.2 km/h 15.0 mph /  24.1 km/h 62 % 0.00 in /  0 mm
05:48 32.0 °F /  0 °C 20.8 °F /  -6.2 °C 30.17 in /  1021.6 hPa North 9.0 mph /  14.5 km/h 22.0 mph /  35.4 km/h 63 % 0.00 in /  0 mm
05:55 31.8 °F /  -0.1 °C 20.7 °F /  -6.3 °C 30.17 in /  1021.6 hPa WNW 3.0 mph /  4.8 km/h 22.0 mph /  35.4 km/h 63 % 0.00 in /  0 mm
06:04 31.8 °F /  -0.1 °C 20.3 °F /  -6.5 °C 30.18 in /  1021.9 hPa NNW 5.0 mph /  8 km/h 17.0 mph /  27.4 km/h 62 % 0.00 in /  0 mm
06:24 31.5 °F /  -0.3 °C 20.3 °F /  -6.5 °C 30.18 in /  1021.9 hPa NW 4.0 mph /  6.4 km/h 15.0 mph /  24.1 km/h 63 % 0.00 in /  0 mm
06:33 31.5 °F /  -0.3 °C 20.3 °F /  -6.5 °C 30.19 in /  1022.2 hPa WNW 4.0 mph /  6.4 km/h 14.0 mph /  22.5 km/h 63 % 0.00 in /  0 mm
07:22 30.6 °F /  -0.8 °C 20.1 °F /  -6.6 °C 30.21 in /  1022.9 hPa NNW 7.0 mph /  11.3 km/h 13.0 mph /  20.9 km/h 65 % 0.00 in /  0 mm
07:39 30.7 °F /  -0.7 °C 19.9 °F /  -6.7 °C 30.21 in /  1022.9 hPa NNW 2.0 mph /  3.2 km/h 15.0 mph /  24.1 km/h 64 % 0.00 in /  0 mm
07:44 30.7 °F /  -0.7 °C 19.9 °F /  -6.7 °C 30.21 in /  1022.9 hPa NNW 2.0 mph /  3.2 km/h 15.0 mph /  24.1 km/h 64 % 0.00 in /  0 mm
07:52 30.7 °F /  -0.7 °C 19.9 °F /  -6.7 °C 30.21 in /  1022.9 hPa NW 4.0 mph /  6.4 km/h 15.0 mph /  24.1 km/h 64 % 0.00 in /  0 mm
08:07 31.1 °F /  -0.5 °C 20.3 °F /  -6.5 °C 30.21 in /  1022.9 hPa NW 5.0 mph /  8 km/h 11.0 mph /  17.7 km/h 64 % 0.00 in /  0 mm
08:30 31.8 °F /  -0.1 °C 20.3 °F /  -6.5 °C 30.23 in /  1023.6 hPa NW 7.0 mph /  11.3 km/h 12.0 mph /  19.3 km/h 62 % 0.00 in /  0 mm
08:42 32.2 °F /  0.1 °C 20.3 °F /  -6.5 °C 30.24 in /  1023.9 hPa NW 6.0 mph /  9.7 km/h 16.0 mph /  25.7 km/h 61 % 0.00 in /  0 mm
08:48 32.5 °F /  0.3 °C 20.7 °F /  -6.3 °C 30.24 in /  1023.9 hPa NW 6.0 mph /  9.7 km/h 16.0 mph /  25.7 km/h 61 % 0.00 in /  0 mm
08:57 32.5 °F /  0.3 °C 20.1 °F /  -6.6 °C 30.25 in /  1024.3 hPa NW 5.0 mph /  8 km/h 16.0 mph /  25.7 km/h 60 % 0.00 in /  0 mm
09:05 33.1 °F /  0.6 °C 19.9 °F /  -6.7 °C 30.26 in /  1024.6 hPa NW 4.0 mph /  6.4 km/h 16.0 mph /  25.7 km/h 58 % 0.00 in /  0 mm
09:10 33.1 °F /  0.6 °C 20.3 °F /  -6.5 °C 30.25 in /  1024.3 hPa North 4.0 mph /  6.4 km/h 15.0 mph /  24.1 km/h 59 % 0.00 in /  0 mm
09:20 33.6 °F /  0.9 °C 20.8 °F /  -6.2 °C 30.25 in /  1024.3 hPa NNW 9.0 mph /  14.5 km/h 12.0 mph /  19.3 km/h 59 % 0.00 in /  0 mm
09:26 34.2 °F /  1.2 °C 20.8 °F /  -6.2 °C 30.25 in /  1024.3 hPa NNW 5.0 mph /  8 km/h 12.0 mph /  19.3 km/h 58 % 0.00 in /  0 mm
09:42 34.3 °F /  1.3 °C 21.0 °F /  -6.1 °C 30.25 in /  1024.3 hPa North 1.0 mph /  1.6 km/h 18.0 mph /  29 km/h 58 % 0.00 in /  0 mm
09:48 35.1 °F /  1.7 °C 21.4 °F /  -5.9 °C 30.25 in /  1024.3 hPa NNW 10.0 mph /  16.1 km/h 18.0 mph /  29 km/h 57 % 0.00 in /  0 mm
10:27 36.9 °F /  2.7 °C 21.7 °F /  -5.7 °C 30.26 in /  1024.6 hPa NNW 9.0 mph /  14.5 km/h 17.0 mph /  27.4 km/h 54 % 0.00 in /  0 mm
10:45 37.8 °F /  3.2 °C 22.1 °F /  -5.5 °C 30.26 in /  1024.6 hPa NW 5.0 mph /  8 km/h 15.0 mph /  24.1 km/h 53 % 0.00 in /  0 mm
10:55 38.7 °F /  3.7 °C 23.4 °F /  -4.8 °C 30.26 in /  1024.6 hPa NNW 6.0 mph /  9.7 km/h 17.0 mph /  27.4 km/h 54 % 0.00 in /  0 mm
11:00 38.8 °F /  3.8 °C 22.6 °F /  -5.2 °C 30.26 in /  1024.6 hPa West 7.0 mph /  11.3 km/h 17.0 mph /  27.4 km/h 52 % 0.00 in /  0 mm
11:05 39.2 °F /  4 °C 22.6 °F /  -5.2 °C 30.26 in /  1024.6 hPa NNW 5.0 mph /  8 km/h 15.0 mph /  24.1 km/h 51 % 0.00 in /  0 mm
11:12 39.6 °F /  4.2 °C 23.4 °F /  -4.8 °C 30.26 in /  1024.6 hPa West 5.0 mph /  8 km/h 15.0 mph /  24.1 km/h 52 % 0.00 in /  0 mm
11:17 39.7 °F /  4.3 °C 23.2 °F /  -4.9 °C 30.26 in /  1024.6 hPa NNW 11.0 mph /  17.7 km/h 14.0 mph /  22.5 km/h 51 % 0.00 in /  0 mm
11:23 40.1 °F /  4.5 °C 23.4 °F /  -4.8 °C 30.26 in /  1024.6 hPa North 6.0 mph /  9.7 km/h 14.0 mph /  22.5 km/h 51 % 0.00 in /  0 mm
11:29 40.3 °F /  4.6 °C 22.6 °F /  -5.2 °C 30.26 in /  1024.6 hPa NNW 8.0 mph /  12.9 km/h 14.0 mph /  22.5 km/h 49 % 0.00 in /  0 mm
11:34 40.5 °F /  4.7 °C 22.8 °F /  -5.1 °C 30.26 in /  1024.6 hPa NW 6.0 mph /  9.7 km/h 13.0 mph /  20.9 km/h 49 % 0.00 in /  0 mm
11:41 40.8 °F /  4.9 °C 23.2 °F /  -4.9 °C 30.25 in /  1024.3 hPa West 2.0 mph /  3.2 km/h 16.0 mph /  25.7 km/h 49 % 0.00 in /  0 mm
11:52 41.0 °F /  5 °C 23.7 °F /  -4.6 °C 30.25 in /  1024.3 hPa WSW 7.0 mph /  11.3 km/h 16.0 mph /  25.7 km/h 50 % 0.00 in /  0 mm
12:03 41.9 °F /  5.5 °C 24.1 °F /  -4.4 °C 30.24 in /  1023.9 hPa NNW 6.0 mph /  9.7 km/h 15.0 mph /  24.1 km/h 49 % 0.00 in /  0 mm
12:10 42.4 °F /  5.8 °C 24.6 °F /  -4.1 °C 30.23 in /  1023.6 hPa West 7.0 mph /  11.3 km/h 13.0 mph /  20.9 km/h 49 % 0.00 in /  0 mm
12:24 42.3 °F /  5.7 °C 23.9 °F /  -4.5 °C 30.23 in /  1023.6 hPa NW 7.0 mph /  11.3 km/h 18.0 mph /  29 km/h 48 % 0.00 in /  0 mm
12:37 43.0 °F /  6.1 °C 25.2 °F /  -3.8 °C 30.22 in /  1023.2 hPa West 2.0 mph /  3.2 km/h 14.0 mph /  22.5 km/h 49 % 0.00 in /  0 mm
12:50 43.3 °F /  6.3 °C 25.0 °F /  -3.9 °C 30.22 in /  1023.2 hPa WNW 5.0 mph /  8 km/h 13.0 mph /  20.9 km/h 48 % 0.00 in /  0 mm
12:58 43.7 °F /  6.5 °C 24.8 °F /  -4 °C 30.21 in /  1022.9 hPa NNW 2.0 mph /  3.2 km/h 13.0 mph /  20.9 km/h 47 % 0.00 in /  0 mm
13:22 44.8 °F /  7.1 °C 25.3 °F /  -3.7 °C 30.19 in /  1022.2 hPa NNW 8.0 mph /  12.9 km/h 17.0 mph /  27.4 km/h 46 % 0.00 in /  0 mm
13:45 45.0 °F /  7.2 °C 25.0 °F /  -3.9 °C 30.19 in /  1022.2 hPa WNW 7.0 mph /  11.3 km/h 16.0 mph /  25.7 km/h 45 % 0.00 in /  0 mm
13:55 45.3 °F /  7.4 °C 25.2 °F /  -3.8 °C 30.19 in /  1022.2 hPa North 4.0 mph /  6.4 km/h 17.0 mph /  27.4 km/h 45 % 0.00 in /  0 mm
14:00 45.7 °F /  7.6 °C 26.1 °F /  -3.3 °C 30.19 in /  1022.2 hPa WNW 5.0 mph /  8 km/h 17.0 mph /  27.4 km/h 46 % 0.00 in /  0 mm
14:07 45.9 °F /  7.7 °C 25.2 °F /  -3.8 °C 30.19 in /  1022.2 hPa NW 7.0 mph /  11.3 km/h 13.0 mph /  20.9 km/h 44 % 0.00 in /  0 mm
14:12 45.9 °F /  7.7 °C 25.7 °F /  -3.5 °C 30.19 in /  1022.2 hPa NW 5.0 mph /  8 km/h 13.0 mph /  20.9 km/h 45 % 0.00 in /  0 mm
14:30 46.0 °F /  7.8 °C 24.8 °F /  -4 °C 30.19 in /  1022.2 hPa NNW 7.0 mph /  11.3 km/h 16.0 mph /  25.7 km/h 43 % 0.00 in /  0 mm
14:42 46.6 °F /  8.1 °C 25.3 °F /  -3.7 °C 30.18 in /  1021.9 hPa NNW 10.0 mph /  16.1 km/h 17.0 mph /  27.4 km/h 43 % 0.00 in /  0 mm
14:52 46.9 °F /  8.3 °C 26.2 °F /  -3.2 °C 30.18 in /  1021.9 hPa NW 4.0 mph /  6.4 km/h 17.0 mph /  27.4 km/h 44 % 0.00 in /  0 mm
15:04 47.1 °F /  8.4 °C 24.6 °F /  -4.1 °C 30.18 in /  1021.9 hPa NNW 10.0 mph /  16.1 km/h 12.0 mph /  19.3 km/h 41 % 0.00 in /  0 mm
15:11 46.9 °F /  8.3 °C 25.0 °F /  -3.9 °C 30.19 in /  1022.2 hPa WNW 7.0 mph /  11.3 km/h 16.0 mph /  25.7 km/h 42 % 0.00 in /  0 mm
15:18 47.3 °F /  8.5 °C 25.3 °F /  -3.7 °C 30.19 in /  1022.2 hPa North 10.0 mph /  16.1 km/h 16.0 mph /  25.7 km/h 42 % 0.00 in /  0 mm
15:27 47.1 °F /  8.4 °C 25.7 °F /  -3.5 °C 30.19 in /  1022.2 hPa NW 1.0 mph /  1.6 km/h 12.0 mph /  19.3 km/h 43 % 0.00 in /  0 mm
15:37 47.1 °F /  8.4 °C 25.2 °F /  -3.8 °C 30.19 in /  1022.2 hPa NNW 6.0 mph /  9.7 km/h 15.0 mph /  24.1 km/h 42 % 0.00 in /  0 mm
15:57 47.3 °F /  8.5 °C 25.3 °F /  -3.7 °C 30.19 in /  1022.2 hPa NNW 3.0 mph /  4.8 km/h 14.0 mph /  22.5 km/h 42 % 0.00 in /  0 mm
16:07 47.7 °F /  8.7 °C 25.2 °F /  -3.8 °C 30.19 in /  1022.2 hPa NNW 11.0 mph /  17.7 km/h 12.0 mph /  19.3 km/h 41 % 0.00 in /  0 mm
16:13 47.3 °F /  8.5 °C 24.8 °F /  -4 °C 30.19 in /  1022.2 hPa NNW 7.0 mph /  11.3 km/h 14.0 mph /  22.5 km/h 41 % 0.00 in /  0 mm
16:23 47.5 °F /  8.6 °C 24.4 °F /  -4.2 °C 30.20 in /  1022.6 hPa NNW 9.0 mph /  14.5 km/h 14.0 mph /  22.5 km/h 40 % 0.00 in /  0 mm
16:37 47.3 °F /  8.5 °C 25.3 °F /  -3.7 °C 30.20 in /  1022.6 hPa NNW 5.0 mph /  8 km/h 11.0 mph /  17.7 km/h 42 % 0.00 in /  0 mm
16:49 47.1 °F /  8.4 °C 25.7 °F /  -3.5 °C 30.21 in /  1022.9 hPa NNW 2.0 mph /  3.2 km/h 12.0 mph /  19.3 km/h 43 % 0.00 in /  0 mm
16:56 47.1 °F /  8.4 °C 25.7 °F /  -3.5 °C 30.21 in /  1022.9 hPa NW 7.0 mph /  11.3 km/h 9.0 mph /  14.5 km/h 43 % 0.00 in /  0 mm
17:06 46.8 °F /  8.2 °C 24.8 °F /  -4 °C 30.22 in /  1023.2 hPa NNE 3.0 mph /  4.8 km/h 10.0 mph /  16.1 km/h 42 % 0.00 in /  0 mm
17:12 46.4 °F /  8 °C 25.2 °F /  -3.8 °C 30.22 in /  1023.2 hPa NNW 5.0 mph /  8 km/h 10.0 mph /  16.1 km/h 43 % 0.00 in /  0 mm
17:29 45.7 °F /  7.6 °C 25.0 °F /  -3.9 °C 30.22 in /  1023.2 hPa NNW 5.0 mph /  8 km/h 6.0 mph /  9.7 km/h 44 % 0.00 in /  0 mm
17:41 45.1 °F /  7.3 °C 25.5 °F /  -3.6 °C 30.23 in /  1023.6 hPa NW 2.0 mph /  3.2 km/h 7.0 mph /  11.3 km/h 46 % 0.00 in /  0 mm
17:49 45.0 °F /  7.2 °C 25.9 °F /  -3.4 °C 30.23 in /  1023.6 hPa NW 3.0 mph /  4.8 km/h 6.0 mph /  9.7 km/h 47 % 0.00 in /  0 mm
17:56 44.6 °F /  7 °C 25.7 °F /  -3.5 °C 30.24 in /  1023.9 hPa NNW 2.0 mph /  3.2 km/h 6.0 mph /  9.7 km/h 47 % 0.00 in /  0 mm
18:05 44.2 °F /  6.8 °C 25.7 °F /  -3.5 °C 30.24 in /  1023.9 hPa NNW 1.0 mph /  1.6 km/h 6.0 mph /  9.7 km/h 48 % 0.00 in /  0 mm
18:15 43.7 °F /  6.5 °C 26.2 °F /  -3.2 °C 30.25 in /  1024.3 hPa Calm   6.0 mph /  9.7 km/h 50 % 0.00 in /  0 mm
18:27 43.0 °F /  6.1 °C 26.1 °F /  -3.3 °C 30.24 in /  1023.9 hPa NNW 1.0 mph /  1.6 km/h 4.0 mph /  6.4 km/h 51 % 0.00 in /  0 mm
18:32 42.8 °F /  6 °C 26.4 °F /  -3.1 °C 30.25 in /  1024.3 hPa Calm   4.0 mph /  6.4 km/h 52 % 0.00 in /  0 mm
18:38 42.6 °F /  5.9 °C 26.2 °F /  -3.2 °C 30.25 in /  1024.3 hPa NNW 1.0 mph /  1.6 km/h 3.0 mph /  4.8 km/h 52 % 0.00 in /  0 mm
18:49 42.4 °F /  5.8 °C 26.6 °F /  -3 °C 30.26 in /  1024.6 hPa NNW 2.0 mph /  3.2 km/h 3.0 mph /  4.8 km/h 53 % 0.00 in /  0 mm
18:54 42.4 °F /  5.8 °C 26.6 °F /  -3 °C 30.26 in /  1024.6 hPa NW 1.0 mph /  1.6 km/h 3.0 mph /  4.8 km/h 53 % 0.00 in /  0 mm
19:06 42.1 °F /  5.6 °C 26.6 °F /  -3 °C 30.26 in /  1024.6 hPa NW 1.0 mph /  1.6 km/h 3.0 mph /  4.8 km/h 54 % 0.00 in /  0 mm
19:26 40.8 °F /  4.9 °C 26.4 °F /  -3.1 °C 30.27 in /  1024.9 hPa Calm   1.0 mph /  1.6 km/h 56 % 0.00 in /  0 mm
19:33 40.8 °F /  4.9 °C 26.8 °F /  -2.9 °C 30.27 in /  1024.9 hPa Calm   2.0 mph /  3.2 km/h 57 % 0.00 in /  0 mm
19:45 40.1 °F /  4.5 °C 27.0 °F /  -2.8 °C 30.28 in /  1025.3 hPa Calm   1.0 mph /  1.6 km/h 59 % 0.00 in /  0 mm
20:02 39.6 °F /  4.2 °C 27.1 °F /  -2.7 °C 30.29 in /  1025.6 hPa Calm   1.0 mph /  1.6 km/h 61 % 0.00 in /  0 mm
20:08 39.4 °F /  4.1 °C 27.1 °F /  -2.7 °C 30.29 in /  1025.6 hPa NW 1.0 mph /  1.6 km/h 1.0 mph /  1.6 km/h 61 % 0.00 in /  0 mm
20:13 39.4 °F /  4.1 °C 27.5 °F /  -2.5 °C 30.29 in /  1025.6 hPa NW 1.0 mph /  1.6 km/h 2.0 mph /  3.2 km/h 62 % 0.00 in /  0 mm
20:18 39.2 °F /  4 °C 27.0 °F /  -2.8 °C 30.30 in /  1026 hPa NW 1.0 mph /  1.6 km/h 3.0 mph /  4.8 km/h 61 % 0.00 in /  0 mm
20:33 39.4 °F /  4.1 °C 26.2 °F /  -3.2 °C 30.30 in /  1026 hPa NNW 2.0 mph /  3.2 km/h 3.0 mph /  4.8 km/h 59 % 0.00 in /  0 mm
20:40 39.4 °F /  4.1 °C 26.2 °F /  -3.2 °C 30.30 in /  1026 hPa Calm   4.0 mph /  6.4 km/h 59 % 0.00 in /  0 mm
20:47 39.2 °F /  4 °C 26.1 °F /  -3.3 °C 30.31 in /  1026.3 hPa Calm   4.0 mph /  6.4 km/h 59 % 0.00 in /  0 mm
21:01 39.0 °F /  3.9 °C 25.9 °F /  -3.4 °C 30.32 in /  1026.6 hPa NW 1.0 mph /  1.6 km/h 3.0 mph /  4.8 km/h 59 % 0.00 in /  0 mm
21:10 38.8 °F /  3.8 °C 25.7 °F /  -3.5 °C 30.32 in /  1026.6 hPa NW 1.0 mph /  1.6 km/h 5.0 mph /  8 km/h 59 % 0.00 in /  0 mm
21:15 38.8 °F /  3.8 °C 25.7 °F /  -3.5 °C 30.33 in /  1027 hPa Calm   5.0 mph /  8 km/h 59 % 0.00 in /  0 mm
21:37 38.1 °F /  3.4 °C 25.9 °F /  -3.4 °C 30.33 in /  1027 hPa Calm   3.0 mph /  4.8 km/h 61 % 0.00 in /  0 mm
21:42 37.9 °F /  3.3 °C 25.7 °F /  -3.5 °C 30.34 in /  1027.3 hPa Calm   3.0 mph /  4.8 km/h 61 % 0.00 in /  0 mm
21:58 37.6 °F /  3.1 °C 25.7 °F /  -3.5 °C 30.35 in /  1027.7 hPa NNW 1.0 mph /  1.6 km/h 2.0 mph /  3.2 km/h 62 % 0.00 in /  0 mm
22:04 37.2 °F /  2.9 °C 25.3 °F /  -3.7 °C 30.35 in /  1027.7 hPa NNW 1.0 mph /  1.6 km/h 2.0 mph /  3.2 km/h 62 % 0.00 in /  0 mm
22:23 37.6 °F /  3.1 °C 25.3 °F /  -3.7 °C 30.35 in /  1027.7 hPa NNW 1.0 mph /  1.6 km/h 4.0 mph /  6.4 km/h 61 % 0.00 in /  0 mm
22:55 37.2 °F /  2.9 °C 24.6 °F /  -4.1 °C 30.36 in /  1028 hPa North 4.0 mph /  6.4 km/h 5.0 mph /  8 km/h 60 % 0.00 in /  0 mm
23:02 37.2 °F /  2.9 °C 24.6 °F /  -4.1 °C 30.36 in /  1028 hPa Calm   6.0 mph /  9.7 km/h 60 % 0.00 in /  0 mm
23:12 37.0 °F /  2.8 °C 24.4 °F /  -4.2 °C 30.37 in /  1028.3 hPa NNW 2.0 mph /  3.2 km/h 6.0 mph /  9.7 km/h 60 % 0.00 in /  0 mm
23:27 37.0 °F /  2.8 °C 24.4 °F /  -4.2 °C 30.37 in /  1028.3 hPa North 4.0 mph /  6.4 km/h 5.0 mph /  8 km/h 60 % 0.00 in /  0 mm
23:42 36.9 °F /  2.7 °C 24.3 °F /  -4.3 °C 30.38 in /  1028.7 hPa NNW 1.0 mph /  1.6 km/h 6.0 mph /  9.7 km/h 60 % 0.00 in /  0 mm
23:47 36.7 °F /  2.6 °C 24.1 °F /  -4.4 °C 30.38 in /  1028.7 hPa NW 1.0 mph /  1.6 km/h 5.0 mph /  8 km/h 60 % 0.00 in /  0 mm
23:56 36.5 °F /  2.5 °C 24.3 °F /  -4.3 °C 30.38 in /  1028.7 hPa Calm   5.0 mph /  8 km/h 61 % 0.00 in /  0 mm
Spring, Texas: Villages of Bridgestone
Compliments of Weather Underground - 2 mb

Script developed by  Jim McMurry - jmcmurry@mwt.net Adapted for the template by  Wim van der Kuil - Leuven-Template.eu

You find our weather info also at:

UK Metoffice

WeatherCloud

Weather Underground

Mid-South Weather Network

AWEKAS

Citizen Weather Observer Program (CWOP)

HAMweather, WeatherForYou, PWS Weather

Equipment we use:

Weather-station
Davis Vantage Vue

Weather-program
Meteohub

Weather-server
Debian 7.9 x86 (Guest)

Provider
DreamHost

Davis Vantage Vue

Meteohub

Debian 7.9 x86 (Guest)

DreamHost